Delta Pioneer — SYIO — position and weather

sailwx.info

Track history (hours):
 
Tides and Currents Weather Stations Pressure Air Temp Water Temp Dewpoint Dewpoint Depression Visibility Wind Speed Wind Dir Waves Ship Positions

Delta Pioneer

Last reported at 2014-Sep-18 06:13 UTC. Time now 2014-Sep-20 01:51 UTC.
Position N 54°18' E 005°03'.

Length 249 m; draft 8 m.

Type: Tanker. MMSI: 240244000.

Date/timePositionNaut miles runAvg speedWind from/ knotsBaromVisibWave heightAir tempDewpointWater temp
2014-Sep-18 06:13N 54°18' E 005°03'7 8.6
2014-Sep-18 05:21N 54°12' E 004°55'33 8.5
2014-Sep-18 01:28N 53°46' E 004°21'8 8.9
2014-Sep-18 00:33N 53°41' E 004°10'9 9.0
2014-Sep-17 23:33N 53°36' E 003°58'9 8.6
2014-Sep-17 22:32N 53°31' E 003°46'75 8.3
2014-Sep-17 13:33N 52°18' E 003°15'9 8.8
2014-Sep-17 12:33N 52°12' E 003°25'8 7.9
2014-Sep-17 11:33N 52°08' E 003°36'0 0.2
2014-Sep-17 10:28N 52°08' E 003°36'0 0.0
2014-Sep-17 09:31N 52°08' E 003°36'0 0.0
2014-Sep-17 08:28N 52°08' E 003°36'0 0.0
2014-Sep-17 07:31N 52°08' E 003°36'0 0.2
2014-Sep-17 06:31N 52°08' E 003°36'0 0.1
2014-Sep-17 05:31N 52°08' E 003°36'0 0.0
2014-Sep-17 04:25N 52°08' E 003°36'0 0.0
2014-Sep-17 03:31N 52°08' E 003°36'0 0.0
2014-Sep-17 02:31N 52°08' E 003°36'0 0.0
2014-Sep-17 01:31N 52°08' E 003°36'0 0.0
2014-Sep-17 00:31N 52°08' E 003°36'0 0.0
2014-Sep-16 23:31N 52°08' E 003°36'0 0.2
2014-Sep-16 22:31N 52°08' E 003°36'0 0.1
2014-Sep-16 21:22N 52°08' E 003°36'0 0.0
2014-Sep-16 20:28N 52°08' E 003°36'0 0.0
2014-Sep-16 19:22N 52°08' E 003°36'0 0.0
2014-Sep-16 18:31N 52°08' E 003°36'0 0.2
2014-Sep-16 17:31N 52°08' E 003°36'0 0.1
2014-Sep-16 16:31N 52°08' E 003°36'0 0.0
2014-Sep-16 15:28N 52°08' E 003°36'0 0.0
2014-Sep-16 14:31N 52°08' E 003°36'0 0.0
2014-Sep-16 13:33N 52°08' E 003°36'2 2.4
2014-Sep-16 12:33N 52°06' E 003°38'9 8.9
2014-Sep-16 11:33N 52°03' E 003°51'1010.0
2014-Sep-16 10:34N 51°58' E 004°06'5 4.9
2014-Sep-16 09:32N 51°55' E 004°12'0 0.0
2014-Sep-16 08:32N 51°55' E 004°12'0 0.0
2014-Sep-16 07:29N 51°55' E 004°12'0 0.0
2014-Sep-16 06:32N 51°55' E 004°12'0 0.0
2014-Sep-16 05:32N 51°55' E 004°12'0 0.0
2014-Sep-16 04:32N 51°55' E 004°12'0 0.0
2014-Sep-16 03:32N 51°55' E 004°12'0 0.0
2014-Sep-16 02:32N 51°55' E 004°12'0 0.0
2014-Sep-16 01:32N 51°55' E 004°12'0 0.0
2014-Sep-16 00:29N 51°55' E 004°12'0 0.0
2014-Sep-15 23:32N 51°55' E 004°12'0 0.0
2014-Sep-15 22:32N 51°55' E 004°12'0 0.0
2014-Sep-15 21:32N 51°55' E 004°12'0 0.0
2014-Sep-15 20:32N 51°55' E 004°12'0 0.0
2014-Sep-15 19:32N 51°55' E 004°12'0 0.0
2014-Sep-15 18:32N 51°55' E 004°12'0 0.0
2014-Sep-15 17:32N 51°55' E 004°12'0 0.0
2014-Sep-15 16:32N 51°55' E 004°12'0 0.0
2014-Sep-15 15:29N 51°55' E 004°12'0 0.0
2014-Sep-15 14:32N 51°55' E 004°12'0 0.0
2014-Sep-15 13:32N 51°55' E 004°12'0 0.0
2014-Sep-15 12:32N 51°55' E 004°12'0 0.0
2014-Sep-15 11:32N 51°55' E 004°12'0 0.0
2014-Sep-15 10:32N 51°55' E 004°12'0 0.0
2014-Sep-15 09:32N 51°55' E 004°12'0 0.0
2014-Sep-15 08:32N 51°55' E 004°12'0 0.0
2014-Sep-15 07:29N 51°55' E 004°12'0 0.0
2014-Sep-15 06:32N 51°55' E 004°12'0 0.0
2014-Sep-15 05:32N 51°55' E 004°12'0 0.0
2014-Sep-15 04:32N 51°55' E 004°12'0 0.0
2014-Sep-15 03:32N 51°55' E 004°12'0 0.0
2014-Sep-15 02:32N 51°55' E 004°12'0 0.0
2014-Sep-15 01:32N 51°55' E 004°12'0 0.0
2014-Sep-15 00:32N 51°55' E 004°12'0 0.0
2014-Sep-14 23:32N 51°55' E 004°12'0 0.0
2014-Sep-14 22:32N 51°55' E 004°12'1 1.5
2014-Sep-14 21:34N 51°56' E 004°11'5 4.5
2014-Sep-14 20:34N 51°59' E 004°05'1110.7
2014-Sep-14 19:33N 51°60' E 003°47'9 9.2
2014-Sep-14 18:34N 51°58' E 003°33'1210.5
2014-Sep-14 17:25N 51°55' E 003°14'223 8.9
2014-Sep-13 16:24N 55°22' E 005°32'1110.8
2014-Sep-13 15:25N 55°32' E 005°40'212 9.7
2014-Sep-12 17:31N 57°51' E 010°30'9 9.8
2014-Sep-12 16:33N 57°49' E 010°47'1010.3
2014-Sep-12 15:34N 57°42' E 011°01'1010.4
2014-Sep-12 14:33N 57°35' E 011°15'1010.1
2014-Sep-12 13:34N 57°27' E 011°28'1010.1
2014-Sep-12 12:34N 57°18' E 011°33'10 9.8
2014-Sep-12 11:32N 57°08' E 011°40'1110.4
2014-Sep-12 10:30N 56°58' E 011°46'1010.1
2014-Sep-12 09:32N 56°49' E 011°52'9 9.1
2014-Sep-12 08:32N 56°40' E 011°49'1010.5
2014-Sep-12 07:33N 56°31' E 011°39'11 9.9
2014-Sep-12 06:29N 56°25' E 011°23'9 9.9
2014-Sep-12 05:33N 56°22' E 011°07'1312.7
2014-Sep-12 04:32N 56°09' E 011°06'3712.1
2014-Sep-12 01:30N 55°33' E 010°51'1212.3
2014-Sep-12 00:31N 55°23' E 011°02'8 8.5
2014-Sep-11 23:33N 55°15' E 011°05'3611.7
2014-Sep-11 20:28N 54°40' E 010°48'1112.0
2014-Sep-11 19:33N 54°36' E 011°05'1212.5
2014-Sep-11 18:33N 54°32' E 011°25'1312.8
2014-Sep-11 17:33N 54°27' E 011°46'1312.6
2014-Sep-11 16:34N 54°27' E 012°08'1110.9
2014-Sep-11 15:34N 54°36' E 012°17'9 9.2
2014-Sep-11 14:33N 54°41' E 012°30'9 8.8
2014-Sep-11 13:33N 54°46' E 012°43'10 9.8
2014-Sep-11 12:31N 54°51' E 012°59'2210.3
2014-Sep-11 10:25N 54°58' E 013°34'910.2
2014-Sep-11 09:33N 55°02' E 013°48'1010.3
2014-Sep-11 08:33N 55°05' E 014°05'1010.3
2014-Sep-11 07:34N 55°13' E 014°17'1110.6
2014-Sep-11 06:33N 55°21' E 014°29'1010.3
2014-Sep-11 05:34N 55°28' E 014°42'1010.2
2014-Sep-11 04:34N 55°33' E 014°57'1010.3
2014-Sep-11 03:33N 55°38' E 015°14'348 9.7
2014-Sep-09 15:34N 59°36' E 023°08'1110.6
2014-Sep-09 14:33N 59°39' E 023°28'1010.2
2014-Sep-09 13:34N 59°42' E 023°47'1010.4
2014-Sep-09 12:33N 59°44' E 024°07'1010.5
2014-Sep-09 11:34N 59°47' E 024°27'1510.3
2014-Sep-09 10:05N 59°51' E 024°56'1610.2
2014-Sep-09 08:32N 59°53' E 025°28'1010.4
2014-Sep-09 07:34N 59°55' E 025°48'1010.3
2014-Sep-09 06:34N 59°58' E 026°08'1010.2
2014-Sep-09 05:33N 60°00' E 026°27'1010.1
2014-Sep-09 04:34N 60°01' E 026°48'1010.0
2014-Sep-09 03:34N 60°01' E 027°08'1010.4
2014-Sep-09 02:34N 60°06' E 027°25'1010.4
2014-Sep-09 01:33N 60°12' E 027°43'10 9.8
2014-Sep-09 00:32N 60°19' E 027°57'  
Track history (hours):
 
Tides and Currents Weather Stations Pressure Air Temp Water Temp Dewpoint Dewpoint Depression Visibility Wind Speed Wind Dir Waves Ship Positions

Delta Pioneer

Last reported at 2014-Sep-18 06:13 UTC. Time now 2014-Sep-20 01:51 UTC.
Position N 54°18' E 005°03'.

Length 249 m; draft 8 m.

Type: Tanker. MMSI: 240244000.

Date/timePositionNaut miles runAvg speedWind from/ knotsBaromVisibWave heightAir tempDewpointWater temp
2014-Sep-18 06:13N 54°18' E 005°03'7 8.6
2014-Sep-18 05:21N 54°12' E 004°55'33 8.5
2014-Sep-18 01:28N 53°46' E 004°21'8 8.9
2014-Sep-18 00:33N 53°41' E 004°10'9 9.0
2014-Sep-17 23:33N 53°36' E 003°58'9 8.6
2014-Sep-17 22:32N 53°31' E 003°46'75 8.3
2014-Sep-17 13:33N 52°18' E 003°15'9 8.8
2014-Sep-17 12:33N 52°12' E 003°25'8 7.9
2014-Sep-17 11:33N 52°08' E 003°36'0 0.2
2014-Sep-17 10:28N 52°08' E 003°36'0 0.0
2014-Sep-17 09:31N 52°08' E 003°36'0 0.0
2014-Sep-17 08:28N 52°08' E 003°36'0 0.0
2014-Sep-17 07:31N 52°08' E 003°36'0 0.2
2014-Sep-17 06:31N 52°08' E 003°36'0 0.1
2014-Sep-17 05:31N 52°08' E 003°36'0 0.0
2014-Sep-17 04:25N 52°08' E 003°36'0 0.0
2014-Sep-17 03:31N 52°08' E 003°36'0 0.0
2014-Sep-17 02:31N 52°08' E 003°36'0 0.0
2014-Sep-17 01:31N 52°08' E 003°36'0 0.0
2014-Sep-17 00:31N 52°08' E 003°36'0 0.0
2014-Sep-16 23:31N 52°08' E 003°36'0 0.2
2014-Sep-16 22:31N 52°08' E 003°36'0 0.1
2014-Sep-16 21:22N 52°08' E 003°36'0 0.0
2014-Sep-16 20:28N 52°08' E 003°36'0 0.0
2014-Sep-16 19:22N 52°08' E 003°36'0 0.0
2014-Sep-16 18:31N 52°08' E 003°36'0 0.2
2014-Sep-16 17:31N 52°08' E 003°36'0 0.1
2014-Sep-16 16:31N 52°08' E 003°36'0 0.0
2014-Sep-16 15:28N 52°08' E 003°36'0 0.0
2014-Sep-16 14:31N 52°08' E 003°36'0 0.0
2014-Sep-16 13:33N 52°08' E 003°36'2 2.4
2014-Sep-16 12:33N 52°06' E 003°38'9 8.9
2014-Sep-16 11:33N 52°03' E 003°51'1010.0
2014-Sep-16 10:34N 51°58' E 004°06'5 4.9
2014-Sep-16 09:32N 51°55' E 004°12'0 0.0
2014-Sep-16 08:32N 51°55' E 004°12'0 0.0
2014-Sep-16 07:29N 51°55' E 004°12'0 0.0
2014-Sep-16 06:32N 51°55' E 004°12'0 0.0
2014-Sep-16 05:32N 51°55' E 004°12'0 0.0
2014-Sep-16 04:32N 51°55' E 004°12'0 0.0
2014-Sep-16 03:32N 51°55' E 004°12'0 0.0
2014-Sep-16 02:32N 51°55' E 004°12'0 0.0
2014-Sep-16 01:32N 51°55' E 004°12'0 0.0
2014-Sep-16 00:29N 51°55' E 004°12'0 0.0
2014-Sep-15 23:32N 51°55' E 004°12'0 0.0
2014-Sep-15 22:32N 51°55' E 004°12'0 0.0
2014-Sep-15 21:32N 51°55' E 004°12'0 0.0
2014-Sep-15 20:32N 51°55' E 004°12'0 0.0
2014-Sep-15 19:32N 51°55' E 004°12'0 0.0
2014-Sep-15 18:32N 51°55' E 004°12'0 0.0
2014-Sep-15 17:32N 51°55' E 004°12'0 0.0
2014-Sep-15 16:32N 51°55' E 004°12'0 0.0
2014-Sep-15 15:29N 51°55' E 004°12'0 0.0
2014-Sep-15 14:32N 51°55' E 004°12'0 0.0
2014-Sep-15 13:32N 51°55' E 004°12'0 0.0
2014-Sep-15 12:32N 51°55' E 004°12'0 0.0
2014-Sep-15 11:32N 51°55' E 004°12'0 0.0
2014-Sep-15 10:32N 51°55' E 004°12'0 0.0
2014-Sep-15 09:32N 51°55' E 004°12'0 0.0
2014-Sep-15 08:32N 51°55' E 004°12'0 0.0
2014-Sep-15 07:29N 51°55' E 004°12'0 0.0
2014-Sep-15 06:32N 51°55' E 004°12'0 0.0
2014-Sep-15 05:32N 51°55' E 004°12'0 0.0
2014-Sep-15 04:32N 51°55' E 004°12'0 0.0
2014-Sep-15 03:32N 51°55' E 004°12'0 0.0
2014-Sep-15 02:32N 51°55' E 004°12'0 0.0
2014-Sep-15 01:32N 51°55' E 004°12'0 0.0
2014-Sep-15 00:32N 51°55' E 004°12'0 0.0
2014-Sep-14 23:32N 51°55' E 004°12'0 0.0
2014-Sep-14 22:32N 51°55' E 004°12'1 1.5
2014-Sep-14 21:34N 51°56' E 004°11'5 4.5
2014-Sep-14 20:34N 51°59' E 004°05'1110.7
2014-Sep-14 19:33N 51°60' E 003°47'9 9.2
2014-Sep-14 18:34N 51°58' E 003°33'1210.5
2014-Sep-14 17:25N 51°55' E 003°14'223 8.9
2014-Sep-13 16:24N 55°22' E 005°32'1110.8
2014-Sep-13 15:25N 55°32' E 005°40'212 9.7
2014-Sep-12 17:31N 57°51' E 010°30'9 9.8
2014-Sep-12 16:33N 57°49' E 010°47'1010.3
2014-Sep-12 15:34N 57°42' E 011°01'1010.4
2014-Sep-12 14:33N 57°35' E 011°15'1010.1
2014-Sep-12 13:34N 57°27' E 011°28'1010.1
2014-Sep-12 12:34N 57°18' E 011°33'10 9.8
2014-Sep-12 11:32N 57°08' E 011°40'1110.4
2014-Sep-12 10:30N 56°58' E 011°46'1010.1
2014-Sep-12 09:32N 56°49' E 011°52'9 9.1
2014-Sep-12 08:32N 56°40' E 011°49'1010.5
2014-Sep-12 07:33N 56°31' E 011°39'11 9.9
2014-Sep-12 06:29N 56°25' E 011°23'9 9.9
2014-Sep-12 05:33N 56°22' E 011°07'1312.7
2014-Sep-12 04:32N 56°09' E 011°06'3712.1
2014-Sep-12 01:30N 55°33' E 010°51'1212.3
2014-Sep-12 00:31N 55°23' E 011°02'8 8.5
2014-Sep-11 23:33N 55°15' E 011°05'3611.7
2014-Sep-11 20:28N 54°40' E 010°48'1112.0
2014-Sep-11 19:33N 54°36' E 011°05'1212.5
2014-Sep-11 18:33N 54°32' E 011°25'1312.8
2014-Sep-11 17:33N 54°27' E 011°46'1312.6
2014-Sep-11 16:34N 54°27' E 012°08'1110.9
2014-Sep-11 15:34N 54°36' E 012°17'9 9.2
2014-Sep-11 14:33N 54°41' E 012°30'9 8.8
2014-Sep-11 13:33N 54°46' E 012°43'10 9.8
2014-Sep-11 12:31N 54°51' E 012°59'2210.3
2014-Sep-11 10:25N 54°58' E 013°34'910.2
2014-Sep-11 09:33N 55°02' E 013°48'1010.3
2014-Sep-11 08:33N 55°05' E 014°05'1010.3
2014-Sep-11 07:34N 55°13' E 014°17'1110.6
2014-Sep-11 06:33N 55°21' E 014°29'1010.3
2014-Sep-11 05:34N 55°28' E 014°42'1010.2
2014-Sep-11 04:34N 55°33' E 014°57'1010.3
2014-Sep-11 03:33N 55°38' E 015°14'348 9.7
2014-Sep-09 15:34N 59°36' E 023°08'1110.6
2014-Sep-09 14:33N 59°39' E 023°28'1010.2
2014-Sep-09 13:34N 59°42' E 023°47'1010.4
2014-Sep-09 12:33N 59°44' E 024°07'1010.5
2014-Sep-09 11:34N 59°47' E 024°27'1510.3
2014-Sep-09 10:05N 59°51' E 024°56'1610.2
2014-Sep-09 08:32N 59°53' E 025°28'1010.4
2014-Sep-09 07:34N 59°55' E 025°48'1010.3
2014-Sep-09 06:34N 59°58' E 026°08'1010.2
2014-Sep-09 05:33N 60°00' E 026°27'1010.1
2014-Sep-09 04:34N 60°01' E 026°48'1010.0
2014-Sep-09 03:34N 60°01' E 027°08'1010.4
2014-Sep-09 02:34N 60°06' E 027°25'1010.4
2014-Sep-09 01:33N 60°12' E 027°43'10 9.8
2014-Sep-09 00:32N 60°19' E 027°57'  

Dump ship's entire track history